createdAt,value
2018-10-09T00:02:09.416Z,18.20
2018-10-09T00:04:51.451Z,18.20
2018-10-09T00:07:32.635Z,18.20
2018-10-09T00:10:14.261Z,18.20
2018-10-09T00:12:55.621Z,18.20
2018-10-09T00:15:37.693Z,18.30
2018-10-09T00:18:19.027Z,18.20
2018-10-09T00:21:00.645Z,18.20
2018-10-09T00:23:41.485Z,18.20
2018-10-09T00:26:23.440Z,18.20
2018-10-09T00:29:05.073Z,18.30
2018-10-09T00:31:46.853Z,18.30
2018-10-09T00:34:28.547Z,18.30
2018-10-09T00:37:09.581Z,18.30
2018-10-09T00:39:50.495Z,18.30
2018-10-09T00:42:31.179Z,18.30
2018-10-09T00:45:11.999Z,18.30
2018-10-09T00:47:52.938Z,18.30
2018-10-09T00:50:33.662Z,18.30
2018-10-09T00:53:14.537Z,18.40
2018-10-09T00:55:56.066Z,18.40
2018-10-09T00:58:37.714Z,18.40
2018-10-09T01:01:19.312Z,18.40
2018-10-09T01:04:00.968Z,18.40
2018-10-09T01:06:42.494Z,18.30
2018-10-09T01:09:24.175Z,18.40
2018-10-09T01:12:07.647Z,18.40
2018-10-09T01:14:54.155Z,18.40
2018-10-09T01:17:35.546Z,18.40
2018-10-09T01:20:21.272Z,18.40
2018-10-09T01:23:10.734Z,18.40
2018-10-09T01:25:52.352Z,18.40
2018-10-09T01:28:33.998Z,18.30
2018-10-09T01:31:18.868Z,18.20
2018-10-09T01:34:02.997Z,18.20
2018-10-09T01:36:44.682Z,18.10
2018-10-09T01:39:25.417Z,18.00
2018-10-09T01:42:06.995Z,18.00
2018-10-09T01:44:58.986Z,17.90
2018-10-09T01:47:39.985Z,17.80
2018-10-09T01:50:21.590Z,17.80
2018-10-09T01:53:02.539Z,17.80
2018-10-09T01:55:45.224Z,17.80
2018-10-09T01:58:26.880Z,17.80
2018-10-09T02:01:08.588Z,17.80
2018-10-09T02:03:50.182Z,17.80
2018-10-09T02:06:35.625Z,17.70
2018-10-09T02:09:17.227Z,17.80
2018-10-09T02:11:58.779Z,17.80
2018-10-09T02:14:40.478Z,17.80
2018-10-09T02:17:34.640Z,17.80
2018-10-09T02:20:15.860Z,17.80
2018-10-09T02:23:01.333Z,17.80
2018-10-09T02:25:43.718Z,17.90
2018-10-09T02:28:25.813Z,17.90
2018-10-09T02:31:08.112Z,17.90
2018-10-09T02:33:49.942Z,17.90
2018-10-09T02:36:35.314Z,17.90
2018-10-09T02:39:16.095Z,17.90
2018-10-09T02:41:57.851Z,17.80
2018-10-09T02:44:39.731Z,17.90
2018-10-09T02:47:21.169Z,17.90
2018-10-09T02:50:02.893Z,17.90
2018-10-09T02:52:44.575Z,17.90
2018-10-09T02:55:29.205Z,17.90
2018-10-09T02:58:10.191Z,17.90
2018-10-09T03:00:51.824Z,17.90
2018-10-09T03:03:36.743Z,17.90
2018-10-09T03:06:21.386Z,17.90
2018-10-09T03:09:02.475Z,17.90
2018-10-09T03:11:43.258Z,17.90
2018-10-09T03:14:24.094Z,17.90
2018-10-09T03:17:05.578Z,18.00
2018-10-09T03:19:47.834Z,17.90
2018-10-09T03:22:31.453Z,18.00
2018-10-09T03:25:13.114Z,18.00
2018-10-09T03:27:54.774Z,18.00
2018-10-09T03:30:37.325Z,18.00
2018-10-09T03:33:19.144Z,18.10
2018-10-09T03:36:03.898Z,18.10
2018-10-09T03:38:45.579Z,18.10
2018-10-09T03:41:28.919Z,18.10
2018-10-09T03:44:11.878Z,18.20
2018-10-09T03:46:54.505Z,18.20
2018-10-09T03:49:36.297Z,18.20
2018-10-09T03:52:17.091Z,18.20
2018-10-09T03:55:05.940Z,18.20
2018-10-09T03:57:47.745Z,18.20
2018-10-09T04:00:28.607Z,18.20
2018-10-09T04:03:09.381Z,18.30
2018-10-09T04:05:51.164Z,18.30
2018-10-09T04:08:34.711Z,18.30
2018-10-09T04:11:15.607Z,18.40
2018-10-09T04:13:56.489Z,18.40
2018-10-09T04:16:38.689Z,18.30
2018-10-09T04:19:20.310Z,18.30
2018-10-09T04:22:01.758Z,18.30
2018-10-09T04:24:47.314Z,18.30
2018-10-09T04:27:27.999Z,18.30
2018-10-09T04:30:09.698Z,18.20
2018-10-09T04:32:50.436Z,18.10
2018-10-09T04:35:33.596Z,18.10
2018-10-09T04:38:14.757Z,18.10
2018-10-09T04:40:55.617Z,18.00
2018-10-09T04:43:38.212Z,17.90
2018-10-09T04:46:19.812Z,17.90
2018-10-09T04:49:01.323Z,17.80
2018-10-09T04:51:42.979Z,17.70
2018-10-09T04:54:25.397Z,17.60
2018-10-09T04:57:06.424Z,17.50
2018-10-09T04:59:47.292Z,17.50
2018-10-09T05:02:28.133Z,17.50
2018-10-09T05:05:09.088Z,17.50
2018-10-09T05:07:51.403Z,17.50
2018-10-09T05:10:32.802Z,17.50
2018-10-09T05:13:13.782Z,17.50
2018-10-09T05:15:54.523Z,17.50
2018-10-09T05:18:35.294Z,17.50
2018-10-09T05:21:16.112Z,17.50
2018-10-09T05:23:57.822Z,17.60
2018-10-09T05:26:38.444Z,17.60
2018-10-09T05:32:25.814Z,17.70
2018-10-09T05:35:07.458Z,17.80
2018-10-09T05:37:49.164Z,17.80
2018-10-09T05:40:30.648Z,17.90
2018-10-09T05:43:12.311Z,17.90
2018-10-09T05:45:53.797Z,17.90
2018-10-09T05:48:35.355Z,17.90
2018-10-09T05:51:16.978Z,17.90
2018-10-09T05:53:58.711Z,17.90
2018-10-09T05:56:40.190Z,17.90
2018-10-09T05:59:21.689Z,17.90
2018-10-09T06:02:03.412Z,17.90
2018-10-09T06:04:48.933Z,18.00
2018-10-09T06:07:29.660Z,18.00
2018-10-09T06:10:11.180Z,18.00
2018-10-09T06:12:52.722Z,18.10
2018-10-09T06:15:34.211Z,18.20
2018-10-09T06:18:15.930Z,18.30
2018-10-09T06:20:57.649Z,18.10
2018-10-09T06:23:39.320Z,18.00
2018-10-09T06:26:20.798Z,17.90
2018-10-09T06:29:02.282Z,17.90
2018-10-09T06:31:54.298Z,17.80
2018-10-09T06:34:36.176Z,17.80
2018-10-09T06:37:17.328Z,17.80
2018-10-09T06:39:59.088Z,17.60
2018-10-09T06:42:40.839Z,17.60
2018-10-09T06:45:23.389Z,17.70
2018-10-09T06:48:04.056Z,17.70
2018-10-09T06:50:44.984Z,17.60
2018-10-09T06:53:26.698Z,17.60
2018-10-09T06:56:08.130Z,17.60
2018-10-09T06:58:49.745Z,17.70
2018-10-09T07:01:31.140Z,17.90
2018-10-09T07:04:12.696Z,18.10
2018-10-09T07:06:54.511Z,18.40
2018-10-09T07:09:36.499Z,18.70
2018-10-09T07:12:17.587Z,18.90
2018-10-09T07:14:59.310Z,19.20
2018-10-09T07:17:40.972Z,19.30
2018-10-09T07:20:22.424Z,19.40
2018-10-09T07:23:03.963Z,19.60
2018-10-09T07:25:45.735Z,19.80
2018-10-09T07:28:27.426Z,20.20
2018-10-09T07:31:09.138Z,20.70
2018-10-09T07:33:50.665Z,21.30
2018-10-09T07:36:32.360Z,22.00
2018-10-09T07:39:14.659Z,22.50
2018-10-09T07:41:55.739Z,22.80
2018-10-09T07:44:36.940Z,23.00
2018-10-09T07:47:18.104Z,23.10
2018-10-09T07:49:59.637Z,23.10
2018-10-09T07:52:41.425Z,23.20
2018-10-09T07:55:23.519Z,23.40
2018-10-09T07:58:04.528Z,23.70
2018-10-09T08:00:45.990Z,24.40
2018-10-09T08:03:28.101Z,25.20
2018-10-09T08:06:08.972Z,26.20
2018-10-09T08:08:50.604Z,27.20
2018-10-09T08:11:32.255Z,27.80
2018-10-09T08:14:13.859Z,28.40
2018-10-09T08:16:55.538Z,29.00
2018-10-09T08:19:37.313Z,29.20
2018-10-09T08:22:18.908Z,29.70
2018-10-09T08:25:00.589Z,30.20
2018-10-09T08:27:42.166Z,30.80
2018-10-09T08:30:23.759Z,30.80
2018-10-09T08:33:05.627Z,31.10
2018-10-09T08:35:46.810Z,31.10
2018-10-09T08:38:28.439Z,31.10
2018-10-09T08:41:10.140Z,31.60
2018-10-09T08:43:51.747Z,31.90
2018-10-09T08:46:32.530Z,32.40
2018-10-09T08:49:14.145Z,32.40
2018-10-09T08:51:55.758Z,32.30
2018-10-09T08:54:37.367Z,32.50
2018-10-09T08:57:18.934Z,32.80
2018-10-09T09:00:00.616Z,33.20
2018-10-09T09:02:42.188Z,33.50
2018-10-09T09:05:24.009Z,33.80
2018-10-09T09:08:05.494Z,33.50
2018-10-09T09:10:46.266Z,32.20
2018-10-09T09:13:28.146Z,30.60
2018-10-09T09:16:09.758Z,29.10
2018-10-09T09:18:51.472Z,27.70
2018-10-09T09:21:33.226Z,26.30
2018-10-09T09:24:14.718Z,25.30
2018-10-09T09:26:56.481Z,24.60
2018-10-09T09:29:38.038Z,24.30
2018-10-09T09:32:19.589Z,24.00
2018-10-09T09:35:01.208Z,23.90
2018-10-09T09:37:43.375Z,24.40
2018-10-09T09:40:24.934Z,25.20
2018-10-09T09:43:05.901Z,26.60
2018-10-09T09:45:47.573Z,27.40
2018-10-09T09:48:30.067Z,27.40
2018-10-09T09:51:11.910Z,27.80
2018-10-09T09:53:53.795Z,27.70
2018-10-09T09:56:34.459Z,26.90
2018-10-09T09:59:16.229Z,26.10
2018-10-09T10:01:57.055Z,26.10
2018-10-09T10:04:39.186Z,26.10
2018-10-09T10:07:20.301Z,26.30
2018-10-09T10:10:02.481Z,26.10
2018-10-09T10:12:43.729Z,25.90
2018-10-09T10:15:25.334Z,25.90
2018-10-09T10:18:06.957Z,25.70
2018-10-09T10:20:48.509Z,25.60
2018-10-09T10:23:31.257Z,25.30
2018-10-09T10:26:13.006Z,25.50
2018-10-09T10:28:54.673Z,25.40
2018-10-09T10:31:36.363Z,25.50
2018-10-09T10:34:17.982Z,25.40
2018-10-09T10:36:59.532Z,25.20
2018-10-09T10:39:41.356Z,24.90
2018-10-09T10:42:22.807Z,24.40
2018-10-09T10:45:04.509Z,24.30
2018-10-09T10:47:46.740Z,24.20
2018-10-09T10:50:27.912Z,24.30
2018-10-09T10:53:09.610Z,24.30
2018-10-09T10:55:52.555Z,24.30
2018-10-09T10:58:33.904Z,24.20
2018-10-09T11:01:15.614Z,24.10
2018-10-09T11:03:57.541Z,23.80
2018-10-09T11:06:38.858Z,23.50
2018-10-09T11:09:20.437Z,23.30
2018-10-09T11:12:01.365Z,23.20
2018-10-09T11:14:42.903Z,23.20
2018-10-09T11:17:23.661Z,23.40
2018-10-09T11:20:04.866Z,23.60
2018-10-09T11:22:45.901Z,23.60
2018-10-09T11:25:27.500Z,23.70
2018-10-09T11:28:08.315Z,23.60
2018-10-09T11:30:48.979Z,23.60
2018-10-09T11:33:29.805Z,23.60
2018-10-09T11:36:11.511Z,23.80
2018-10-09T11:38:53.262Z,24.20
2018-10-09T11:41:34.871Z,24.60
2018-10-09T11:44:16.456Z,24.80
2018-10-09T11:46:58.115Z,25.00
2018-10-09T11:49:39.530Z,25.10
2018-10-09T11:52:20.242Z,25.20
2018-10-09T11:55:01.166Z,25.10
2018-10-09T11:57:42.684Z,24.90
2018-10-09T12:00:24.607Z,24.80
2018-10-09T12:03:06.850Z,24.70
2018-10-09T12:05:47.676Z,24.70
2018-10-09T12:08:29.183Z,24.50
2018-10-09T12:11:10.764Z,24.40
2018-10-09T12:13:51.544Z,24.40
2018-10-09T12:16:32.378Z,24.50
2018-10-09T12:19:13.222Z,24.50
2018-10-09T12:21:54.197Z,24.70
2018-10-09T12:24:35.073Z,24.90
2018-10-09T12:27:15.957Z,25.10
2018-10-09T12:29:58.464Z,25.20
2018-10-09T12:32:39.257Z,25.30
2018-10-09T12:35:20.101Z,25.60
2018-10-09T12:38:00.782Z,25.70
2018-10-09T12:40:41.535Z,25.70
2018-10-09T12:43:22.552Z,25.80
2018-10-09T12:46:20.628Z,25.90
2018-10-09T12:49:01.966Z,25.90
2018-10-09T12:51:43.659Z,25.70
2018-10-09T12:54:26.236Z,25.60
2018-10-09T12:57:07.880Z,25.50
2018-10-09T12:59:49.516Z,25.50
2018-10-09T13:02:31.066Z,25.10
2018-10-09T13:05:12.659Z,24.90
2018-10-09T13:07:54.323Z,24.80
2018-10-09T13:10:35.882Z,24.70
2018-10-09T13:13:17.381Z,24.60
2018-10-09T13:15:58.828Z,24.50
2018-10-09T13:18:40.862Z,24.30
2018-10-09T13:21:22.152Z,24.20
2018-10-09T13:24:03.738Z,24.10
2018-10-09T13:26:47.496Z,24.00
2018-10-09T13:29:28.844Z,23.90
2018-10-09T13:32:10.399Z,23.80
2018-10-09T13:34:51.922Z,23.70
2018-10-09T13:37:32.871Z,23.50
2018-10-09T13:40:14.356Z,23.40
2018-10-09T13:42:56.350Z,23.30
2018-10-09T13:45:38.348Z,23.20
2018-10-09T13:48:19.120Z,23.10
2018-10-09T13:51:00.788Z,23.00
2018-10-09T13:53:42.388Z,22.90
2018-10-09T13:56:23.095Z,22.80
2018-10-09T13:59:04.061Z,22.80
2018-10-09T14:01:45.754Z,22.80
2018-10-09T14:04:27.231Z,23.00
2018-10-09T14:07:08.744Z,23.30
2018-10-09T14:09:50.289Z,23.40
2018-10-09T14:12:31.930Z,23.40
2018-10-09T14:15:13.504Z,23.40
2018-10-09T14:17:54.972Z,23.40
2018-10-09T14:20:36.535Z,23.40
2018-10-09T14:23:18.133Z,23.40
2018-10-09T14:25:59.591Z,23.30
2018-10-09T14:28:41.183Z,23.30
2018-10-09T14:31:22.754Z,23.40
2018-10-09T14:34:04.340Z,23.30
2018-10-09T14:36:44.995Z,23.30
2018-10-09T14:39:26.902Z,23.20
2018-10-09T14:42:09.510Z,23.10
2018-10-09T14:44:51.344Z,23.00
2018-10-09T14:47:32.979Z,22.90
2018-10-09T14:50:14.417Z,23.00
2018-10-09T14:52:55.234Z,22.90
2018-10-09T14:55:36.752Z,22.80
2018-10-09T14:58:18.373Z,22.70
2018-10-09T15:00:59.219Z,22.70
2018-10-09T15:03:40.110Z,22.70
2018-10-09T15:06:21.619Z,22.70
2018-10-09T15:09:03.680Z,22.60
2018-10-09T15:11:45.322Z,22.50
2018-10-09T15:14:26.995Z,22.50
2018-10-09T15:17:08.409Z,22.50
2018-10-09T15:19:50.540Z,22.40
2018-10-09T15:22:31.433Z,22.30
2018-10-09T15:25:13.116Z,22.30
2018-10-09T15:27:54.817Z,22.20
2018-10-09T15:30:36.524Z,22.20
2018-10-09T15:33:18.144Z,22.10
2018-10-09T15:35:59.730Z,22.20
2018-10-09T15:38:41.386Z,22.20
2018-10-09T15:41:22.955Z,22.20
2018-10-09T15:44:04.514Z,22.10
2018-10-09T15:46:46.197Z,22.10
2018-10-09T15:49:27.842Z,22.10
2018-10-09T15:52:09.446Z,22.10
2018-10-09T15:54:51.012Z,22.10
2018-10-09T15:57:32.636Z,22.10
2018-10-09T16:00:14.174Z,22.00
2018-10-09T16:02:55.869Z,22.00
2018-10-09T16:05:37.465Z,22.00
2018-10-09T16:08:18.870Z,21.90
2018-10-09T16:11:00.721Z,21.90
2018-10-09T16:13:42.262Z,21.80
2018-10-09T16:16:23.973Z,21.80
2018-10-09T16:19:05.590Z,21.80
2018-10-09T16:21:47.092Z,21.80
2018-10-09T16:24:28.878Z,21.80
2018-10-09T16:27:10.577Z,21.70
2018-10-09T16:29:52.238Z,21.70
2018-10-09T16:32:33.840Z,21.80
2018-10-09T16:35:15.487Z,21.70
2018-10-09T16:37:57.301Z,21.60
2018-10-09T16:40:39.407Z,21.60
2018-10-09T16:43:20.519Z,21.60
2018-10-09T16:46:02.199Z,21.60
2018-10-09T16:48:43.675Z,21.50
2018-10-09T16:51:25.267Z,21.50
2018-10-09T16:54:07.249Z,21.50
2018-10-09T16:56:48.422Z,21.50
2018-10-09T16:59:30.082Z,21.50
2018-10-09T17:02:11.783Z,21.50
2018-10-09T17:04:53.303Z,21.50
2018-10-09T17:07:35.957Z,21.40
2018-10-09T17:10:17.040Z,21.40
2018-10-09T17:12:58.345Z,21.40
2018-10-09T17:15:40.024Z,21.40
2018-10-09T17:18:21.637Z,21.40
2018-10-09T17:21:03.244Z,21.30
2018-10-09T17:23:44.864Z,21.30
2018-10-09T17:26:26.044Z,21.30
2018-10-09T17:29:07.590Z,21.30
2018-10-09T17:31:49.923Z,21.20
2018-10-09T17:34:30.931Z,21.30
2018-10-09T17:37:13.845Z,21.20
2018-10-09T17:39:55.499Z,21.30
2018-10-09T17:42:37.405Z,21.30
2018-10-09T17:45:18.911Z,21.20
2018-10-09T17:48:00.642Z,21.30
2018-10-09T17:50:42.787Z,21.30
2018-10-09T17:53:23.849Z,21.40
2018-10-09T17:56:05.641Z,21.30
2018-10-09T17:58:47.342Z,21.30
2018-10-09T18:01:29.591Z,21.20
2018-10-09T18:04:10.903Z,21.20
2018-10-09T18:06:52.960Z,21.20
2018-10-09T18:09:34.320Z,21.20
2018-10-09T18:12:18.098Z,21.20
2018-10-09T18:14:59.821Z,21.20
2018-10-09T18:17:40.636Z,21.20
2018-10-09T18:20:22.382Z,21.10
2018-10-09T18:23:05.091Z,20.90
2018-10-09T18:25:46.882Z,20.70
2018-10-09T18:28:28.669Z,20.50
2018-10-09T18:31:10.948Z,20.30
2018-10-09T18:33:52.166Z,20.10
2018-10-09T18:36:33.069Z,20.00
2018-10-09T18:39:16.559Z,19.90
2018-10-09T18:41:58.493Z,19.80
2018-10-09T18:44:39.962Z,19.70
2018-10-09T18:47:25.888Z,19.60
2018-10-09T18:50:07.794Z,19.70
2018-10-09T18:52:49.889Z,19.80
2018-10-09T18:55:30.909Z,19.80
2018-10-09T18:58:12.489Z,19.80
2018-10-09T19:00:54.392Z,19.80
2018-10-09T19:03:35.832Z,19.80
2018-10-09T19:06:18.198Z,19.80
2018-10-09T19:08:59.141Z,19.80
2018-10-09T19:11:40.864Z,19.80
2018-10-09T19:14:22.589Z,19.90
2018-10-09T19:17:04.315Z,20.00
2018-10-09T19:19:45.747Z,20.00
2018-10-09T19:22:27.294Z,20.10
2018-10-09T19:25:10.817Z,20.10
2018-10-09T19:27:51.760Z,20.20
2018-10-09T19:30:33.499Z,20.20
2018-10-09T19:33:15.672Z,20.20
2018-10-09T19:35:58.230Z,20.30
2018-10-09T19:38:40.024Z,20.40
2018-10-09T19:41:24.790Z,20.50
2018-10-09T19:44:06.821Z,20.70
2018-10-09T19:46:48.417Z,20.90
2018-10-09T19:49:30.230Z,21.20
2018-10-09T19:52:13.074Z,21.20
2018-10-09T19:54:54.933Z,21.10
2018-10-09T19:57:36.558Z,21.00
2018-10-09T20:00:17.389Z,21.00
2018-10-09T20:02:58.256Z,20.90
2018-10-09T20:05:39.699Z,20.80
2018-10-09T20:08:21.378Z,20.70
2018-10-09T20:11:03.210Z,20.50
2018-10-09T20:13:45.073Z,20.40
2018-10-09T20:16:26.650Z,20.40
2018-10-09T20:19:07.743Z,20.40
2018-10-09T20:21:49.144Z,20.20
2018-10-09T20:24:31.037Z,20.00
2018-10-09T20:27:12.532Z,19.90
2018-10-09T20:29:53.892Z,19.80
2018-10-09T20:32:35.593Z,19.80
2018-10-09T20:35:17.110Z,19.70
2018-10-09T20:37:57.813Z,19.70
2018-10-09T20:40:40.444Z,19.70
2018-10-09T20:43:22.050Z,19.60
2018-10-09T20:46:04.155Z,19.80
2018-10-09T20:55:52.958Z,19.80
2018-10-09T20:58:34.233Z,19.70
2018-10-09T21:01:15.616Z,19.70
2018-10-09T21:03:57.576Z,19.70
2018-10-09T21:06:38.906Z,19.60
2018-10-09T21:09:21.145Z,19.50
2018-10-09T21:12:02.207Z,19.50
2018-10-09T21:14:43.560Z,19.50
2018-10-09T21:17:25.281Z,19.50
2018-10-09T21:20:07.100Z,19.40
2018-10-09T21:25:16.933Z,19.40
2018-10-09T21:27:58.295Z,19.40
2018-10-09T21:30:39.747Z,19.40
2018-10-09T21:33:20.856Z,19.50
2018-10-09T21:36:02.606Z,19.50
2018-10-09T21:38:44.108Z,19.50
2018-10-09T21:41:25.788Z,19.50
2018-10-09T21:44:07.254Z,19.60
2018-10-09T21:46:49.489Z,19.70
2018-10-09T21:49:31.370Z,19.70
2018-10-09T21:52:12.974Z,19.70
2018-10-09T21:54:54.673Z,19.70
2018-10-09T21:57:37.019Z,19.70
2018-10-09T22:00:17.986Z,19.80
2018-10-09T22:02:59.785Z,19.80
2018-10-09T22:05:41.389Z,19.80
2018-10-09T22:08:22.769Z,19.70
2018-10-09T22:11:04.584Z,19.80
2018-10-09T22:13:45.993Z,19.70
2018-10-09T22:16:28.644Z,19.70
2018-10-09T22:19:10.286Z,19.70
2018-10-09T22:21:51.807Z,19.70
2018-10-09T22:24:33.886Z,19.70
2018-10-09T22:27:15.763Z,19.70
2018-10-09T22:29:56.787Z,19.70
2018-10-09T22:32:38.550Z,19.60
2018-10-09T22:35:19.984Z,19.60
2018-10-09T22:38:01.714Z,19.60
2018-10-09T22:40:43.323Z,19.50
2018-10-09T22:43:25.363Z,19.60
2018-10-09T22:46:07.871Z,19.60
2018-10-09T22:48:49.129Z,19.60
2018-10-09T22:51:31.349Z,19.60
2018-10-09T22:54:13.454Z,19.60
2018-10-09T22:56:54.496Z,19.60
2018-10-09T22:59:35.802Z,19.70
2018-10-09T23:02:17.347Z,19.70
2018-10-09T23:04:59.001Z,19.90
2018-10-09T23:07:40.918Z,19.90
2018-10-09T23:10:22.806Z,19.90
2018-10-09T23:13:04.525Z,19.90
2018-10-09T23:15:46.094Z,19.90
2018-10-09T23:18:27.906Z,20.00
2018-10-09T23:21:09.276Z,20.10
2018-10-09T23:23:50.878Z,20.00
2018-10-09T23:26:32.472Z,20.10
2018-10-09T23:29:13.973Z,20.10
2018-10-09T23:31:55.539Z,20.10
2018-10-09T23:34:37.950Z,20.10
2018-10-09T23:37:19.607Z,20.00
2018-10-09T23:40:02.049Z,20.00
2018-10-09T23:42:44.394Z,19.90
2018-10-09T23:45:25.255Z,20.10
2018-10-09T23:48:10.104Z,20.00
2018-10-09T23:50:51.452Z,20.00
2018-10-09T23:53:32.936Z,19.90
2018-10-09T23:56:14.609Z,19.80
2018-10-09T23:58:56.308Z,19.80
